createdAt,value
2019-02-17T00:03:12.908Z,10.50
2019-02-17T00:08:05.744Z,9.70
2019-02-17T00:12:57.465Z,9.80
2019-02-17T00:17:49.725Z,9.20
2019-02-17T00:22:41.809Z,9.50
2019-02-17T00:27:34.075Z,9.90
2019-02-17T00:32:26.042Z,9.50
2019-02-17T00:37:18.083Z,9.80
2019-02-17T00:42:09.773Z,11.70
2019-02-17T00:47:01.733Z,14.40
2019-02-17T00:51:53.783Z,11.60
2019-02-17T00:56:45.482Z,12.20
2019-02-17T01:01:37.303Z,11.70
2019-02-17T01:06:31.322Z,13.10
2019-02-17T01:11:22.561Z,9.60
2019-02-17T01:16:14.663Z,10.40
2019-02-17T01:21:06.722Z,9.80
2019-02-17T01:25:58.679Z,9.60
2019-02-17T01:30:50.539Z,8.50
2019-02-17T01:35:44.546Z,10.50
2019-02-17T01:40:36.219Z,10.90
2019-02-17T01:45:28.131Z,9.90
2019-02-17T01:50:20.170Z,9.10
2019-02-17T01:55:14.546Z,11.10
2019-02-17T02:00:06.022Z,10.60
2019-02-17T02:05:00.313Z,11.00
2019-02-17T02:09:51.663Z,11.90
2019-02-17T02:14:43.555Z,9.90
2019-02-17T02:19:35.613Z,9.60
2019-02-17T02:24:27.631Z,15.90
2019-02-17T02:29:19.651Z,12.00
2019-02-17T02:34:11.768Z,10.90
2019-02-17T02:39:03.649Z,11.60
2019-02-17T02:43:56.574Z,10.70
2019-02-17T02:48:48.192Z,9.10
2019-02-17T02:53:40.116Z,8.70
2019-02-17T02:58:31.782Z,10.00
2019-02-17T03:03:23.621Z,10.90
2019-02-17T03:08:15.644Z,13.90
2019-02-17T03:13:07.569Z,12.30
2019-02-17T03:17:59.505Z,11.40
2019-02-17T03:22:51.705Z,14.00
2019-02-17T03:27:43.631Z,12.20
2019-02-17T03:32:35.228Z,11.40
2019-02-17T03:37:27.095Z,11.20
2019-02-17T03:42:18.890Z,11.80
2019-02-17T03:47:10.666Z,11.40
2019-02-17T03:52:03.383Z,10.80
2019-02-17T03:56:55.394Z,11.20
2019-02-17T04:01:47.613Z,10.10
2019-02-17T04:06:41.845Z,11.30
2019-02-17T04:11:33.539Z,10.30
2019-02-17T04:16:25.564Z,10.40
2019-02-17T04:21:17.679Z,10.00
2019-02-17T04:26:09.902Z,10.90
2019-02-17T04:31:02.023Z,11.80
2019-02-17T04:35:54.045Z,11.80
2019-02-17T04:40:46.084Z,11.10
2019-02-17T04:45:38.031Z,11.00
2019-02-17T04:50:29.847Z,9.30
2019-02-17T04:55:21.833Z,10.40
2019-02-17T05:00:13.951Z,11.80
2019-02-17T05:05:05.688Z,11.30
2019-02-17T05:09:57.270Z,11.20
2019-02-17T05:14:49.283Z,10.80
2019-02-17T05:19:41.041Z,10.60
2019-02-17T05:24:33.077Z,10.80
2019-02-17T05:29:24.933Z,12.40
2019-02-17T05:34:19.120Z,12.70
2019-02-17T05:39:10.769Z,12.30
2019-02-17T05:44:02.563Z,12.50
2019-02-17T05:48:54.412Z,11.40
2019-02-17T05:53:46.577Z,13.30
2019-02-17T05:58:39.387Z,12.10
2019-02-17T06:03:31.162Z,11.20
2019-02-17T06:08:22.836Z,11.10
2019-02-17T06:13:14.697Z,11.50
2019-02-17T06:18:06.767Z,12.00
2019-02-17T06:22:58.758Z,10.10
2019-02-17T06:27:50.618Z,10.70
2019-02-17T06:32:42.603Z,11.00
2019-02-17T06:37:34.547Z,12.40
2019-02-17T06:42:26.654Z,10.20
2019-02-17T06:47:18.696Z,12.30
2019-02-17T06:52:10.529Z,12.40
2019-02-17T06:57:02.686Z,11.50
2019-02-17T07:01:54.728Z,12.00
2019-02-17T07:06:46.745Z,10.30
2019-02-17T07:11:38.686Z,11.70
2019-02-17T07:16:30.898Z,12.30
2019-02-17T07:21:22.973Z,12.50
2019-02-17T07:26:17.095Z,12.70
2019-02-17T07:31:08.529Z,11.80
2019-02-17T07:36:00.487Z,11.90
2019-02-17T07:40:52.658Z,11.70
2019-02-17T07:45:44.533Z,11.60
2019-02-17T07:50:36.628Z,11.80
2019-02-17T07:55:28.606Z,10.80
2019-02-17T08:00:20.607Z,11.40
2019-02-17T08:05:12.675Z,10.00
2019-02-17T08:10:04.597Z,12.70
2019-02-17T08:14:56.878Z,11.50
2019-02-17T08:19:48.982Z,11.80
2019-02-17T08:24:41.236Z,11.70
2019-02-17T08:29:33.602Z,11.70
2019-02-17T08:34:25.899Z,10.50
2019-02-17T08:39:17.837Z,11.40
2019-02-17T08:44:09.895Z,11.10
2019-02-17T08:49:01.943Z,13.50
2019-02-17T08:53:54.522Z,11.80
2019-02-17T08:58:46.654Z,12.40
2019-02-17T09:03:38.767Z,9.90
2019-02-17T09:08:30.933Z,10.60
2019-02-17T09:13:25.120Z,10.50
2019-02-17T09:18:16.734Z,12.10
2019-02-17T09:23:08.772Z,12.50
2019-02-17T09:28:00.805Z,10.60
2019-02-17T09:32:52.832Z,11.20
2019-02-17T09:37:44.794Z,12.10
2019-02-17T09:42:37.190Z,11.70
2019-02-17T09:47:30.341Z,16.20
2019-02-17T09:52:22.381Z,12.80
2019-02-17T09:57:14.518Z,12.00
2019-02-17T10:02:06.654Z,11.20
2019-02-17T10:06:58.866Z,11.30
2019-02-17T10:11:51.029Z,11.50
2019-02-17T10:16:43.560Z,11.50
2019-02-17T10:21:37.771Z,11.10
2019-02-17T10:26:29.625Z,11.20
2019-02-17T10:31:22.586Z,12.00
2019-02-17T10:36:15.484Z,11.90
2019-02-17T10:41:07.536Z,9.70
2019-02-17T10:46:00.227Z,12.30
2019-02-17T10:50:52.589Z,10.70
2019-02-17T10:55:44.915Z,10.10
2019-02-17T11:00:37.310Z,12.90
2019-02-17T11:05:29.586Z,10.60
2019-02-17T11:10:21.617Z,10.40
2019-02-17T11:15:13.935Z,11.80
2019-02-17T11:20:06.002Z,10.10
2019-02-17T11:24:58.326Z,11.80
2019-02-17T11:29:50.530Z,10.90
2019-02-17T11:34:42.771Z,9.80
2019-02-17T11:39:35.234Z,11.20
2019-02-17T11:44:27.723Z,10.30
2019-02-17T11:49:20.182Z,10.30
2019-02-17T11:54:12.773Z,9.30
2019-02-17T11:59:05.377Z,9.80
2019-02-17T12:03:57.816Z,10.30
2019-02-17T12:08:50.238Z,10.10
2019-02-17T12:13:42.870Z,9.80
2019-02-17T12:18:35.181Z,10.20
2019-02-17T12:23:28.080Z,9.00
2019-02-17T12:28:20.814Z,10.10
2019-02-17T12:33:21.466Z,10.40
2019-02-17T12:38:12.493Z,13.30
2019-02-17T12:43:05.020Z,10.00
2019-02-17T12:47:58.887Z,10.20
2019-02-17T12:52:51.193Z,9.30
2019-02-17T12:57:43.515Z,9.70
2019-02-17T13:02:35.681Z,14.80
2019-02-17T13:07:27.970Z,10.30
2019-02-17T13:12:20.482Z,11.10
2019-02-17T13:17:12.493Z,10.10
2019-02-17T13:22:04.714Z,9.70
2019-02-17T13:26:56.898Z,11.50
2019-02-17T13:31:49.230Z,10.00
2019-02-17T13:36:41.435Z,9.60
2019-02-17T13:41:34.004Z,10.20
2019-02-17T13:46:26.411Z,8.60
2019-02-17T13:51:19.067Z,8.40
2019-02-17T13:56:11.688Z,9.30
2019-02-17T14:01:05.040Z,7.80
2019-02-17T14:05:59.666Z,7.90
2019-02-17T14:10:52.018Z,9.30
2019-02-17T14:15:44.511Z,7.50
2019-02-17T14:20:36.844Z,7.80
2019-02-17T14:25:29.079Z,7.10
2019-02-17T14:30:21.146Z,8.50
2019-02-17T14:35:13.329Z,9.10
2019-02-17T14:40:05.282Z,7.50
2019-02-17T14:44:57.290Z,7.90
2019-02-17T14:49:51.668Z,8.30
2019-02-17T14:54:43.993Z,9.60
2019-02-17T14:59:36.045Z,8.90
2019-02-17T15:04:28.275Z,7.20
2019-02-17T15:09:20.422Z,8.50
2019-02-17T15:14:13.546Z,7.50
2019-02-17T15:19:05.399Z,8.80
2019-02-17T15:23:57.682Z,10.40
2019-02-17T15:28:51.933Z,7.80
2019-02-17T15:33:43.826Z,8.30
2019-02-17T15:38:36.310Z,9.50
2019-02-17T15:43:28.389Z,8.60
2019-02-17T15:48:20.916Z,11.20
2019-02-17T15:53:13.205Z,9.50
2019-02-17T15:58:05.552Z,7.60
2019-02-17T16:02:57.858Z,8.30
2019-02-17T16:07:50.103Z,7.70
2019-02-17T16:12:42.198Z,6.60
2019-02-17T16:17:34.551Z,7.30
2019-02-17T16:22:26.841Z,6.30
2019-02-17T16:27:19.146Z,5.70
2019-02-17T16:32:11.583Z,6.00
2019-02-17T16:37:03.921Z,6.70
2019-02-17T16:41:56.501Z,6.40
2019-02-17T16:46:48.521Z,6.10
2019-02-17T16:51:40.696Z,6.00
2019-02-17T16:56:32.819Z,5.60
2019-02-17T17:01:25.095Z,6.20
2019-02-17T17:06:17.138Z,6.50
2019-02-17T17:11:09.054Z,5.80
2019-02-17T17:16:01.091Z,4.70
2019-02-17T17:20:53.013Z,5.50
2019-02-17T17:25:45.009Z,6.20
2019-02-17T17:30:37.148Z,5.30
2019-02-17T17:35:29.655Z,6.00
2019-02-17T17:40:21.824Z,5.60
2019-02-17T17:45:14.048Z,5.60
2019-02-17T17:50:06.009Z,5.30
2019-02-17T17:54:58.423Z,5.30
2019-02-17T17:59:50.709Z,5.70
2019-02-17T18:04:42.725Z,5.40
2019-02-17T18:09:34.881Z,4.50
2019-02-17T18:14:27.180Z,5.80
2019-02-17T18:19:19.030Z,4.80
2019-02-17T18:24:11.253Z,4.50
2019-02-17T18:29:03.151Z,5.00
2019-02-17T18:33:55.237Z,5.60
2019-02-17T18:38:47.101Z,4.60
2019-02-17T18:43:38.952Z,5.90
2019-02-17T18:48:30.985Z,5.20
2019-02-17T18:53:22.944Z,6.70
2019-02-17T18:58:15.012Z,5.00
2019-02-17T19:03:07.370Z,4.70
2019-02-17T19:08:00.854Z,6.40
2019-02-17T19:12:52.670Z,5.30
2019-02-17T19:17:44.558Z,5.30
2019-02-17T19:22:36.694Z,7.10
2019-02-17T19:27:28.630Z,5.60
2019-02-17T19:32:20.837Z,6.40
2019-02-17T19:37:12.945Z,5.30
2019-02-17T19:42:05.350Z,5.60
2019-02-17T19:46:57.501Z,5.30
2019-02-17T19:51:50.153Z,6.00
2019-02-17T19:56:44.140Z,6.80
2019-02-17T20:01:35.319Z,6.20
2019-02-17T20:06:27.184Z,6.70
2019-02-17T20:11:19.196Z,8.00
2019-02-17T20:16:11.196Z,7.00
2019-02-17T20:21:02.926Z,7.30
2019-02-17T20:25:55.207Z,6.50
2019-02-17T20:30:49.259Z,8.60
2019-02-17T20:35:40.903Z,7.00
2019-02-17T20:40:32.602Z,7.40
2019-02-17T20:45:24.444Z,6.60
2019-02-17T20:50:16.303Z,5.80
2019-02-17T20:55:08.319Z,6.90
2019-02-17T21:00:00.749Z,6.90
2019-02-17T21:04:52.819Z,7.20
2019-02-17T21:09:44.951Z,7.50
2019-02-17T21:14:37.150Z,6.70
2019-02-17T21:19:29.109Z,7.90
2019-02-17T21:24:21.287Z,5.90
2019-02-17T21:29:13.348Z,8.10
2019-02-17T21:34:05.371Z,6.90
2019-02-17T21:38:59.209Z,8.30
2019-02-17T21:43:50.849Z,8.20
2019-02-17T21:48:42.899Z,7.50
2019-02-17T21:53:35.066Z,6.70
2019-02-17T21:58:27.140Z,9.90
2019-02-17T22:03:18.968Z,8.20
2019-02-17T22:08:10.962Z,8.40
2019-02-17T22:13:02.779Z,8.20
2019-02-17T22:17:55.502Z,7.60
2019-02-17T22:22:47.421Z,7.30
2019-02-17T22:27:39.325Z,6.50
2019-02-17T22:32:31.395Z,7.00
2019-02-17T22:37:23.518Z,8.80
2019-02-17T22:42:15.377Z,8.00
2019-02-17T22:47:07.252Z,9.00
2019-02-17T22:51:59.425Z,8.60
2019-02-17T22:56:51.559Z,9.70
2019-02-17T23:01:45.436Z,8.70
2019-02-17T23:06:37.541Z,8.60
2019-02-17T23:11:29.386Z,7.30
2019-02-17T23:16:21.801Z,8.30
2019-02-17T23:21:13.458Z,7.10
2019-02-17T23:26:05.722Z,6.90
2019-02-17T23:30:57.875Z,5.50
2019-02-17T23:35:50.011Z,6.90
2019-02-17T23:40:42.095Z,6.90
2019-02-17T23:45:34.203Z,6.10
2019-02-17T23:50:26.165Z,6.80
2019-02-17T23:55:18.216Z,6.80
